createdAt,value
2018-04-10T00:01:37.887Z,12.51
2018-04-10T00:04:06.200Z,12.54
2018-04-10T00:06:34.500Z,12.57
2018-04-10T00:09:02.836Z,12.58
2018-04-10T00:11:31.175Z,12.62
2018-04-10T00:13:59.484Z,12.62
2018-04-10T00:16:27.796Z,12.64
2018-04-10T00:18:56.916Z,12.66
2018-04-10T00:21:25.304Z,12.67
2018-04-10T00:23:53.625Z,12.70
2018-04-10T00:26:21.968Z,12.72
2018-04-10T00:28:50.295Z,12.75
2018-04-10T00:31:19.390Z,12.79
2018-04-10T00:33:47.704Z,12.79
2018-04-10T00:36:16.788Z,12.79
2018-04-10T00:38:45.882Z,12.80
2018-04-10T00:41:14.189Z,12.81
2018-04-10T00:43:42.497Z,12.84
2018-04-10T00:46:10.824Z,12.77
2018-04-10T00:48:39.142Z,12.77
2018-04-10T00:51:07.557Z,12.75
2018-04-10T00:53:38.551Z,12.72
2018-04-10T00:56:07.681Z,12.72
2018-04-10T00:58:36.010Z,12.70
2018-04-10T01:01:04.318Z,12.68
2018-04-10T01:03:33.386Z,12.65
2018-04-10T01:06:01.686Z,12.63
2018-04-10T01:08:30.772Z,12.65
2018-04-10T01:10:59.081Z,12.64
2018-04-10T01:13:27.403Z,12.63
2018-04-10T01:15:55.717Z,12.64
2018-04-10T01:18:24.797Z,12.65
2018-04-10T01:20:53.125Z,12.67
2018-04-10T01:23:21.429Z,12.67
2018-04-10T01:25:49.732Z,12.64
2018-04-10T01:28:18.051Z,12.64
2018-04-10T01:30:47.120Z,12.61
2018-04-10T01:33:15.425Z,12.57
2018-04-10T01:35:44.503Z,12.51
2018-04-10T01:38:12.835Z,12.45
2018-04-10T01:40:41.137Z,12.38
2018-04-10T01:43:09.505Z,12.30
2018-04-10T01:45:37.869Z,12.22
2018-04-10T01:48:06.187Z,12.14
2018-04-10T01:50:34.510Z,12.08
2018-04-10T01:53:03.586Z,12.03
2018-04-10T01:55:31.892Z,11.96
2018-04-10T01:58:01.011Z,11.91
2018-04-10T02:00:29.316Z,11.87
2018-04-10T02:02:57.629Z,11.84
2018-04-10T02:05:25.950Z,11.81
2018-04-10T02:07:54.279Z,11.76
2018-04-10T02:10:22.591Z,11.72
2018-04-10T02:12:51.670Z,11.69
2018-04-10T02:15:20.002Z,11.66
2018-04-10T02:17:48.313Z,11.61
2018-04-10T02:20:17.828Z,11.59
2018-04-10T02:22:46.175Z,11.61
2018-04-10T02:25:14.486Z,11.62
2018-04-10T02:27:42.860Z,11.64
2018-04-10T02:30:11.171Z,11.64
2018-04-10T02:32:39.472Z,11.61
2018-04-10T02:35:08.555Z,11.61
2018-04-10T02:37:36.880Z,11.61
2018-04-10T02:40:05.206Z,11.64
2018-04-10T02:42:33.531Z,11.63
2018-04-10T02:45:01.854Z,11.66
2018-04-10T02:47:30.195Z,11.68
2018-04-10T02:49:58.505Z,11.71
2018-04-10T02:52:26.820Z,11.75
2018-04-10T02:54:56.650Z,11.78
2018-04-10T02:57:25.725Z,11.83
2018-04-10T02:59:54.034Z,11.85
2018-04-10T03:02:23.237Z,11.90
2018-04-10T03:04:52.313Z,11.94
2018-04-10T03:07:20.621Z,11.99
2018-04-10T03:09:49.711Z,12.05
2018-04-10T03:12:18.794Z,12.11
2018-04-10T03:14:47.095Z,12.16
2018-04-10T03:17:16.175Z,12.24
2018-04-10T03:19:44.491Z,12.31
2018-04-10T03:22:12.797Z,12.36
2018-04-10T03:24:41.121Z,12.43
2018-04-10T03:27:09.455Z,12.49
2018-04-10T03:29:37.839Z,12.55
2018-04-10T03:32:06.158Z,12.61
2018-04-10T03:34:34.464Z,12.68
2018-04-10T03:37:03.545Z,12.76
2018-04-10T03:39:31.879Z,12.82
2018-04-10T03:42:00.187Z,12.86
2018-04-10T03:44:28.495Z,12.89
2018-04-10T03:46:56.813Z,12.92
2018-04-10T03:49:25.129Z,12.93
2018-04-10T03:51:53.448Z,12.95
2018-04-10T03:54:22.527Z,12.99
2018-04-10T03:56:50.857Z,12.99
2018-04-10T03:59:19.193Z,13.02
2018-04-10T04:01:47.511Z,13.06
2018-04-10T04:04:15.836Z,13.06
2018-04-10T04:06:44.174Z,13.08
2018-04-10T04:09:12.482Z,13.11
2018-04-10T04:11:40.822Z,13.13
2018-04-10T04:14:09.911Z,13.16
2018-04-10T04:16:56.688Z,13.20
2018-04-10T04:19:42.707Z,13.24
2018-04-10T04:25:17.127Z,13.38
2018-04-10T04:27:46.216Z,13.44
2018-04-10T04:30:14.534Z,13.51
2018-04-10T04:32:42.852Z,13.57
2018-04-10T04:35:11.165Z,13.63
2018-04-10T04:37:39.581Z,13.68
2018-04-10T04:40:07.892Z,13.74
2018-04-10T04:42:36.212Z,13.78
2018-04-10T04:45:05.294Z,13.83
2018-04-10T04:47:33.632Z,13.88
2018-04-10T04:50:01.952Z,13.91
2018-04-10T04:52:30.264Z,13.95
2018-04-10T04:54:59.362Z,13.98
2018-04-10T04:57:28.463Z,14.00
2018-04-10T04:59:57.562Z,14.02
2018-04-10T05:02:25.894Z,14.04
2018-04-10T05:04:54.215Z,14.04
2018-04-10T05:07:23.307Z,14.05
2018-04-10T05:09:52.483Z,14.08
2018-04-10T05:12:20.994Z,14.11
2018-04-10T05:14:50.101Z,14.15
2018-04-10T05:17:18.430Z,14.18
2018-04-10T05:19:46.759Z,14.23
2018-04-10T05:22:15.844Z,14.23
2018-04-10T05:24:44.376Z,14.26
2018-04-10T05:27:12.729Z,14.30
2018-04-10T05:29:41.838Z,14.35
2018-04-10T05:32:10.953Z,14.37
2018-04-10T05:34:39.293Z,14.42
2018-04-10T05:37:07.627Z,14.47
2018-04-10T05:39:35.950Z,14.51
2018-04-10T05:42:04.306Z,14.58
2018-04-10T05:44:32.636Z,14.63
2018-04-10T05:47:01.791Z,14.67
2018-04-10T05:49:30.138Z,14.72
2018-04-10T05:51:58.453Z,14.76
2018-04-10T05:54:27.557Z,14.81
2018-04-10T05:56:55.878Z,14.87
2018-04-10T05:59:24.986Z,14.94
2018-04-10T06:01:53.353Z,15.01
2018-04-10T06:04:22.454Z,15.11
2018-04-10T06:06:51.553Z,15.19
2018-04-10T06:09:20.650Z,15.29
2018-04-10T06:11:49.726Z,15.39
2018-04-10T06:14:18.031Z,15.50
2018-04-10T06:16:47.165Z,15.62
2018-04-10T06:19:15.494Z,15.72
2018-04-10T06:21:43.840Z,15.80
2018-04-10T06:24:12.200Z,15.86
2018-04-10T06:26:40.649Z,15.87
2018-04-10T06:29:10.587Z,15.90
2018-04-10T06:31:39.678Z,15.91
2018-04-10T06:34:08.761Z,15.90
2018-04-10T06:36:37.066Z,15.88
2018-04-10T06:39:06.776Z,15.89
2018-04-10T06:41:35.863Z,15.92
2018-04-10T06:44:04.960Z,15.96
2018-04-10T06:46:33.333Z,16.00
2018-04-10T06:49:01.638Z,16.04
2018-04-10T06:51:29.970Z,16.10
2018-04-10T06:53:58.387Z,16.17
2018-04-10T06:56:26.710Z,16.27
2018-04-10T06:58:55.794Z,16.39
2018-04-10T07:01:24.871Z,16.55
2018-04-10T07:03:53.194Z,16.77
2018-04-10T07:06:21.522Z,17.03
2018-04-10T07:08:49.839Z,17.28
2018-04-10T07:11:18.167Z,17.60
2018-04-10T07:13:46.805Z,17.84
2018-04-10T07:16:16.166Z,18.02
2018-04-10T07:18:44.494Z,18.21
2018-04-10T07:21:12.805Z,18.38
2018-04-10T07:23:41.135Z,18.53
2018-04-10T07:26:10.234Z,18.63
2018-04-10T07:28:41.318Z,18.72
2018-04-10T07:31:09.637Z,18.81
2018-04-10T07:33:38.022Z,18.90
2018-04-10T07:36:06.363Z,19.03
2018-04-10T07:38:34.691Z,19.16
2018-04-10T07:41:03.006Z,19.26
2018-04-10T07:43:32.099Z,19.31
2018-04-10T07:46:00.438Z,19.36
2018-04-10T07:48:28.790Z,19.40
2018-04-10T07:50:57.107Z,19.43
2018-04-10T07:53:25.419Z,19.47
2018-04-10T07:55:54.487Z,19.55
2018-04-10T07:58:22.813Z,19.64
2018-04-10T08:00:51.129Z,19.79
2018-04-10T08:03:19.459Z,19.94
2018-04-10T08:05:48.590Z,20.11
2018-04-10T08:08:16.899Z,20.25
2018-04-10T08:10:45.356Z,20.43
2018-04-10T08:13:17.060Z,20.63
2018-04-10T08:15:50.398Z,20.85
2018-04-10T08:18:24.698Z,21.06
2018-04-10T08:20:54.727Z,21.28
2018-04-10T08:23:24.982Z,21.62
2018-04-10T08:26:04.267Z,21.90
2018-04-10T08:28:39.610Z,22.17
2018-04-10T08:31:09.362Z,22.43
2018-04-10T08:33:38.279Z,22.66
2018-04-10T08:36:09.097Z,22.98
2018-04-10T08:38:43.621Z,23.30
2018-04-10T08:41:15.840Z,23.63
2018-04-10T08:43:44.324Z,23.92
2018-04-10T08:46:12.823Z,24.08
2018-04-10T08:48:41.999Z,24.14
2018-04-10T08:51:10.361Z,24.26
2018-04-10T08:53:38.705Z,24.46
2018-04-10T08:56:08.645Z,24.57
2018-04-10T08:58:38.122Z,24.60
2018-04-10T09:01:07.204Z,24.61
2018-04-10T09:03:37.647Z,24.45
2018-04-10T09:06:07.038Z,24.24
2018-04-10T09:08:35.442Z,24.02
2018-04-10T09:11:04.638Z,23.79
2018-04-10T09:13:33.748Z,23.77
2018-04-10T09:16:02.076Z,23.92
2018-04-10T09:18:30.446Z,24.06
2018-04-10T09:20:58.882Z,24.11
2018-04-10T09:23:27.968Z,24.11
2018-04-10T09:25:56.555Z,24.08
2018-04-10T09:28:25.067Z,24.07
2018-04-10T09:30:53.439Z,24.03
2018-04-10T09:33:23.092Z,24.00
2018-04-10T09:35:51.633Z,23.92
2018-04-10T09:38:22.652Z,23.92
2018-04-10T09:40:53.265Z,23.98
2018-04-10T09:43:21.598Z,24.02
2018-04-10T09:45:50.715Z,24.10
2018-04-10T09:48:19.223Z,24.14
2018-04-10T09:50:49.088Z,24.16
2018-04-10T09:53:17.412Z,24.18
2018-04-10T09:55:46.148Z,24.20
2018-04-10T09:58:16.145Z,24.19
2018-04-10T10:00:45.378Z,24.23
2018-04-10T10:03:13.938Z,24.29
2018-04-10T10:05:42.824Z,24.41
2018-04-10T10:08:11.157Z,24.45
2018-04-10T10:10:39.464Z,24.53
2018-04-10T10:13:08.034Z,24.63
2018-04-10T10:15:36.432Z,24.71
2018-04-10T10:18:04.768Z,24.88
2018-04-10T10:20:33.474Z,25.16
2018-04-10T10:23:01.900Z,25.35
2018-04-10T10:25:31.836Z,25.41
2018-04-10T10:28:05.211Z,25.47
2018-04-10T10:30:34.836Z,25.60
2018-04-10T10:33:05.320Z,25.77
2018-04-10T10:35:33.696Z,25.95
2018-04-10T10:38:03.121Z,26.13
2018-04-10T10:40:32.830Z,26.31
2018-04-10T10:43:01.897Z,26.57
2018-04-10T10:45:30.660Z,26.82
2018-04-10T10:48:00.134Z,27.08
2018-04-10T10:50:29.515Z,27.43
2018-04-10T10:52:57.977Z,27.90
2018-04-10T10:55:26.375Z,28.22
2018-04-10T10:57:54.756Z,28.59
2018-04-10T11:00:24.252Z,28.90
2018-04-10T11:02:54.182Z,29.15
2018-04-10T11:05:23.522Z,29.42
2018-04-10T11:07:52.696Z,29.70
2018-04-10T11:10:21.033Z,30.05
2018-04-10T11:12:49.361Z,30.36
2018-04-10T11:15:17.669Z,30.71
2018-04-10T11:17:46.749Z,31.03
2018-04-10T11:20:15.879Z,31.29
2018-04-10T11:22:44.200Z,31.63
2018-04-10T11:25:12.507Z,31.94
2018-04-10T11:27:40.830Z,32.34
2018-04-10T11:30:09.169Z,32.76
2018-04-10T11:32:37.480Z,33.02
2018-04-10T11:35:05.813Z,33.44
2018-04-10T11:37:34.143Z,33.83
2018-04-10T11:40:03.246Z,34.06
2018-04-10T11:42:32.325Z,34.32
2018-04-10T11:45:01.427Z,34.63
2018-04-10T11:47:29.749Z,34.93
2018-04-10T11:49:58.093Z,35.44
2018-04-10T11:52:27.221Z,35.87
2018-04-10T11:54:55.533Z,36.19
2018-04-10T11:57:23.861Z,36.45
2018-04-10T11:59:52.967Z,36.74
2018-04-10T12:02:21.288Z,37.02
2018-04-10T12:04:49.603Z,37.42
2018-04-10T12:07:17.944Z,37.87
2018-04-10T12:09:46.327Z,38.25
2018-04-10T12:12:14.672Z,38.42
2018-04-10T12:14:43.773Z,38.49
2018-04-10T12:17:12.873Z,38.44
2018-04-10T12:19:41.978Z,38.66
2018-04-10T12:22:11.841Z,38.88
2018-04-10T12:24:40.212Z,39.06
2018-04-10T12:27:08.561Z,39.29
2018-04-10T12:29:36.934Z,39.89
2018-04-10T12:32:06.026Z,40.42
2018-04-10T12:34:35.108Z,39.92
2018-04-10T12:37:03.444Z,39.78
2018-04-10T12:39:31.758Z,39.86
2018-04-10T12:42:00.094Z,39.59
2018-04-10T12:44:28.438Z,39.39
2018-04-10T12:46:57.597Z,39.50
2018-04-10T12:49:25.957Z,39.75
2018-04-10T12:51:54.300Z,39.90
2018-04-10T12:54:22.624Z,39.52
2018-04-10T12:56:50.964Z,38.78
2018-04-10T12:59:19.283Z,38.27
2018-04-10T13:01:47.620Z,38.11
2018-04-10T13:04:15.956Z,38.35
2018-04-10T13:06:44.291Z,38.52
2018-04-10T13:09:12.636Z,38.25
2018-04-10T13:11:40.965Z,38.47
2018-04-10T13:14:09.290Z,38.49
2018-04-10T13:16:37.625Z,38.63
2018-04-10T13:19:05.982Z,38.67
2018-04-10T13:21:34.318Z,38.87
2018-04-10T13:24:02.621Z,38.96
2018-04-10T13:26:30.974Z,38.51
2018-04-10T13:28:59.326Z,37.79
2018-04-10T13:31:27.642Z,37.30
2018-04-10T13:33:55.976Z,36.75
2018-04-10T13:36:25.340Z,36.32
2018-04-10T13:38:53.655Z,35.82
2018-04-10T13:41:21.976Z,35.22
2018-04-10T13:43:51.396Z,34.83
2018-04-10T13:46:19.715Z,34.53
2018-04-10T13:48:48.029Z,34.19
2018-04-10T13:51:16.425Z,33.77
2018-04-10T13:53:45.581Z,33.75
2018-04-10T13:56:13.938Z,33.39
2018-04-10T13:58:42.278Z,33.21
2018-04-10T14:01:10.635Z,32.90
2018-04-10T14:03:38.989Z,32.68
2018-04-10T14:06:07.327Z,32.38
2018-04-10T14:08:36.506Z,32.13
2018-04-10T14:11:04.814Z,31.92
2018-04-10T14:13:33.917Z,31.77
2018-04-10T14:16:03.024Z,31.60
2018-04-10T14:18:32.109Z,31.37
2018-04-10T14:21:00.425Z,31.17
2018-04-10T14:23:28.777Z,31.04
2018-04-10T14:25:57.869Z,30.91
2018-04-10T14:28:30.993Z,30.79
2018-04-10T14:30:59.322Z,30.55
2018-04-10T14:33:27.631Z,30.35
2018-04-10T14:35:56.714Z,30.25
2018-04-10T14:38:25.040Z,30.00
2018-04-10T14:40:53.376Z,29.74
2018-04-10T14:43:22.476Z,29.43
2018-04-10T14:45:50.814Z,29.16
2018-04-10T14:48:19.124Z,29.12
2018-04-10T14:50:47.509Z,29.02
2018-04-10T14:53:15.862Z,28.94
2018-04-10T14:55:44.608Z,28.84
2018-04-10T14:58:12.913Z,28.83
2018-04-10T15:00:41.233Z,28.81
2018-04-10T15:03:09.552Z,28.68
2018-04-10T15:05:37.867Z,28.53
2018-04-10T15:08:06.253Z,28.36
2018-04-10T15:10:34.591Z,28.09
2018-04-10T15:13:02.906Z,27.82
2018-04-10T15:15:31.225Z,27.61
2018-04-10T15:17:59.547Z,27.21
2018-04-10T15:20:28.648Z,26.89
2018-04-10T15:22:57.726Z,26.59
2018-04-10T15:25:26.041Z,26.29
2018-04-10T15:27:54.393Z,26.00
2018-04-10T15:30:22.716Z,25.83
2018-04-10T15:32:51.123Z,25.69
2018-04-10T15:35:19.444Z,25.57
2018-04-10T15:37:47.792Z,25.48
2018-04-10T15:40:16.115Z,25.43
2018-04-10T15:42:45.199Z,25.38
2018-04-10T15:45:13.630Z,25.38
2018-04-10T15:47:41.966Z,25.44
2018-04-10T15:50:10.307Z,25.46
2018-04-10T15:52:38.612Z,25.53
2018-04-10T15:55:06.919Z,25.61
2018-04-10T15:57:35.239Z,25.61
2018-04-10T16:00:03.579Z,25.64
2018-04-10T16:02:31.914Z,25.67
2018-04-10T16:05:00.315Z,25.67
2018-04-10T16:07:28.633Z,25.65
2018-04-10T16:09:56.950Z,25.65
2018-04-10T16:12:25.672Z,25.70
2018-04-10T16:14:54.004Z,25.76
2018-04-10T16:17:23.120Z,25.73
2018-04-10T16:19:51.448Z,25.67
2018-04-10T16:22:19.804Z,25.62
2018-04-10T16:24:48.128Z,25.64
2018-04-10T16:27:16.448Z,25.56
2018-04-10T16:29:44.788Z,25.33
2018-04-10T16:32:13.900Z,25.14
2018-04-10T16:34:43.019Z,24.92
2018-04-10T16:37:11.342Z,24.58
2018-04-10T16:39:40.446Z,24.26
2018-04-10T16:42:08.806Z,23.92
2018-04-10T16:44:37.177Z,23.64
2018-04-10T16:47:05.492Z,23.36
2018-04-10T16:49:33.816Z,23.07
2018-04-10T16:52:02.891Z,22.80
2018-04-10T16:54:31.214Z,22.56
2018-04-10T16:56:59.524Z,22.29
2018-04-10T16:59:27.855Z,22.08
2018-04-10T17:01:56.934Z,21.90
2018-04-10T17:04:25.268Z,21.74
2018-04-10T17:06:53.600Z,21.58
2018-04-10T17:09:21.939Z,21.45
2018-04-10T17:11:50.253Z,21.32
2018-04-10T17:14:18.578Z,21.26
2018-04-10T17:16:47.471Z,21.28
2018-04-10T17:19:15.840Z,21.38
2018-04-10T17:21:44.943Z,21.49
2018-04-10T17:24:14.023Z,21.66
2018-04-10T17:26:42.351Z,21.80
2018-04-10T17:29:10.679Z,21.87
2018-04-10T17:31:39.005Z,21.85
2018-04-10T17:34:07.341Z,21.80
2018-04-10T17:36:35.656Z,21.61
2018-04-10T17:39:04.007Z,21.49
2018-04-10T17:41:32.336Z,21.38
2018-04-10T17:44:00.668Z,21.21
2018-04-10T17:46:28.973Z,21.06
2018-04-10T17:48:58.095Z,20.86
2018-04-10T17:51:26.409Z,20.65
2018-04-10T17:53:54.749Z,20.50
2018-04-10T17:56:23.067Z,20.33
2018-04-10T17:58:51.395Z,20.12
2018-04-10T18:01:20.515Z,19.94
2018-04-10T18:03:48.833Z,19.73
2018-04-10T18:06:17.159Z,19.55
2018-04-10T18:08:46.242Z,19.38
2018-04-10T18:11:14.565Z,19.22
2018-04-10T18:13:42.868Z,19.12
2018-04-10T18:16:11.198Z,18.99
2018-04-10T18:18:39.741Z,18.88
2018-04-10T18:21:08.091Z,18.74
2018-04-10T18:23:36.430Z,18.57
2018-04-10T18:26:04.780Z,18.43
2018-04-10T18:28:33.094Z,18.28
2018-04-10T18:31:01.412Z,18.13
2018-04-10T18:33:30.546Z,18.03
2018-04-10T18:36:03.158Z,17.91
2018-04-10T18:38:31.716Z,17.83
2018-04-10T18:41:01.403Z,17.73
2018-04-10T18:43:29.737Z,17.62
2018-04-10T18:45:58.086Z,17.45
2018-04-10T18:48:26.402Z,17.34
2018-04-10T18:50:54.721Z,17.52
2018-04-10T18:53:23.043Z,17.58
2018-04-10T18:55:51.387Z,17.39
2018-04-10T18:58:21.456Z,17.26
2018-04-10T19:00:49.766Z,17.15
2018-04-10T19:03:18.098Z,17.03
2018-04-10T19:05:46.424Z,16.94
2018-04-10T19:08:15.584Z,16.94
2018-04-10T19:10:43.922Z,16.85
2018-04-10T19:13:13.033Z,16.73
2018-04-10T19:15:41.353Z,16.64
2018-04-10T19:18:09.681Z,16.54
2018-04-10T19:20:38.766Z,16.49
2018-04-10T19:23:07.083Z,16.41
2018-04-10T19:25:35.397Z,16.36
2018-04-10T19:28:03.724Z,16.42
2018-04-10T19:30:32.884Z,16.37
2018-04-10T19:33:01.239Z,16.29
2018-04-10T19:35:29.595Z,16.26
2018-04-10T19:37:58.657Z,16.21
2018-04-10T19:40:26.986Z,16.15
2018-04-10T19:42:55.382Z,16.07
2018-04-10T19:45:23.727Z,16.02
2018-04-10T19:47:52.064Z,15.97
2018-04-10T19:50:20.375Z,15.93
2018-04-10T19:52:49.092Z,15.92
2018-04-10T19:55:18.211Z,15.90
2018-04-10T19:57:46.574Z,15.89
2018-04-10T20:00:15.673Z,15.86
2018-04-10T20:02:45.500Z,15.78
2018-04-10T20:05:13.820Z,15.74
2018-04-10T20:07:42.145Z,15.70
2018-04-10T20:10:11.256Z,15.68
2018-04-10T20:12:40.360Z,15.66
2018-04-10T20:15:08.698Z,15.70
2018-04-10T20:17:37.032Z,15.71
2018-04-10T20:20:05.342Z,15.74
2018-04-10T20:22:33.686Z,15.82
2018-04-10T20:25:02.006Z,15.86
2018-04-10T20:27:30.348Z,15.87
2018-04-10T20:29:58.688Z,15.85
2018-04-10T20:32:27.027Z,15.84
2018-04-10T20:34:55.356Z,15.84
2018-04-10T20:37:23.659Z,15.85
2018-04-10T20:39:51.995Z,15.83
2018-04-10T20:42:20.296Z,15.78
2018-04-10T20:44:48.705Z,15.77
2018-04-10T20:47:17.251Z,15.74
2018-04-10T20:49:45.600Z,15.69
2018-04-10T20:52:13.914Z,15.64
2018-04-10T20:54:42.238Z,15.59
2018-04-10T20:57:11.340Z,15.52
2018-04-10T20:59:40.419Z,15.42
2018-04-10T21:02:08.795Z,15.31
2018-04-10T21:04:37.129Z,15.22
2018-04-10T21:07:05.430Z,15.13
2018-04-10T21:09:33.759Z,15.05
2018-04-10T21:12:02.841Z,14.97
2018-04-10T21:14:31.173Z,14.89
2018-04-10T21:16:59.494Z,14.87
2018-04-10T21:19:27.807Z,14.77
2018-04-10T21:21:56.906Z,14.71
2018-04-10T21:24:25.246Z,14.65
2018-04-10T21:26:55.989Z,14.57
2018-04-10T21:29:25.117Z,14.48
2018-04-10T21:31:53.436Z,14.39
2018-04-10T21:34:25.380Z,14.30
2018-04-10T21:36:56.852Z,14.26
2018-04-10T21:39:25.764Z,14.36
2018-04-10T21:41:54.285Z,14.21
2018-04-10T21:44:22.624Z,14.09
2018-04-10T21:46:51.021Z,14.00
2018-04-10T21:49:19.341Z,13.97
2018-04-10T21:51:48.554Z,13.93
2018-04-10T21:54:17.641Z,13.88
2018-04-10T21:56:45.955Z,13.82
2018-04-10T21:59:14.285Z,13.82
2018-04-10T22:01:42.593Z,13.85
2018-04-10T22:04:11.713Z,13.83
2018-04-10T22:06:40.032Z,13.81
2018-04-10T22:09:08.363Z,13.78
2018-04-10T22:11:36.682Z,13.81
2018-04-10T22:14:05.038Z,13.88
2018-04-10T22:16:33.355Z,13.84
2018-04-10T22:19:01.864Z,13.93
2018-04-10T22:21:30.170Z,13.94
2018-04-10T22:23:59.232Z,13.97
2018-04-10T22:26:27.629Z,13.98
2018-04-10T22:28:55.946Z,14.03
2018-04-10T22:31:24.282Z,14.05
2018-04-10T22:33:52.552Z,14.06
2018-04-10T22:36:21.646Z,14.13
2018-04-10T22:38:50.002Z,14.17
2018-04-10T22:41:18.320Z,14.24
2018-04-10T22:43:47.406Z,14.31
2018-04-10T22:46:15.741Z,14.39
2018-04-10T22:48:44.048Z,14.45
2018-04-10T22:51:12.366Z,14.50
2018-04-10T22:53:41.459Z,14.51
2018-04-10T22:56:10.578Z,14.52
2018-04-10T22:58:38.897Z,14.54
2018-04-10T23:01:07.215Z,14.57
2018-04-10T23:03:36.326Z,14.58
2018-04-10T23:06:05.410Z,14.56
2018-04-10T23:08:33.758Z,14.57
2018-04-10T23:11:02.065Z,14.59
2018-04-10T23:13:30.384Z,14.62
2018-04-10T23:15:59.464Z,14.63
2018-04-10T23:18:27.765Z,14.64
2018-04-10T23:20:56.874Z,14.67
2018-04-10T23:23:25.968Z,14.69
2018-04-10T23:25:55.040Z,14.71
2018-04-10T23:28:23.351Z,14.72
2018-04-10T23:30:52.430Z,14.73
2018-04-10T23:33:20.752Z,14.75
2018-04-10T23:35:49.065Z,14.76
2018-04-10T23:38:17.365Z,14.78
2018-04-10T23:40:45.674Z,14.80
2018-04-10T23:43:13.991Z,14.81
2018-04-10T23:45:42.315Z,14.82
2018-04-10T23:48:10.630Z,14.81
2018-04-10T23:50:39.059Z,14.82
2018-04-10T23:53:07.422Z,14.80
2018-04-10T23:55:35.740Z,14.81
2018-04-10T23:58:04.051Z,14.78
